Time;durP1;ratioP1;P1;durP2;ratioP2;P2;SDS_P1;SDS_P2;PMS_P1;PMS_P2;Temp;Humidity;BMP_temperature;BMP_pressure;BME280_temperature;BME280_humidity;BME280_pressure;Samples;Min_cycle;Max_cycle;Signal;HPM_P1;HPM_P2
2020/12/17 00:00:35;;;;;;;56.63;28.60;;;8.60;93.30;;;;;;5011673;28;20399;-68
2020/12/17 00:03:01;;;;;;;53.77;27.17;;;8.50;93.20;;;;;;5010496;28;20073;-68
2020/12/17 00:05:27;;;;;;;54.17;27.77;;;8.50;93.30;;;;;;5010149;28;20070;-68
2020/12/17 00:07:52;;;;;;;56.00;27.80;;;8.50;93.30;;;;;;5010135;28;20092;-68
2020/12/17 00:10:18;;;;;;;60.50;29.27;;;8.40;93.30;;;;;;5010973;28;20076;-68
2020/12/17 00:12:46;;;;;;;57.73;28.37;;;8.40;93.30;;;;;;5010827;28;20083;-68
2020/12/17 00:15:14;;;;;;;55.40;27.83;;;8.40;93.30;;;;;;4993607;28;20145;-68
2020/12/17 00:17:42;;;;;;;54.50;28.27;;;8.30;93.30;;;;;;5010063;28;20068;-68
2020/12/17 00:20:09;;;;;;;53.83;26.57;;;8.30;93.30;;;;;;5009954;28;20415;-68
2020/12/17 00:22:39;;;;;;;55.13;26.27;;;8.30;93.30;;;;;;5009015;28;20671;-68
2020/12/17 00:25:06;;;;;;;50.20;25.38;;;8.30;93.40;;;;;;5010953;28;20403;-68
2020/12/17 00:27:32;;;;;;;54.30;26.50;;;8.20;93.30;;;;;;5010475;28;20192;-67
2020/12/17 00:29:58;;;;;;;55.53;28.47;;;8.20;93.30;;;;;;5011191;28;20149;-68
2020/12/17 00:32:24;;;;;;;54.03;26.53;;;8.10;93.30;;;;;;5008644;28;20061;-70
2020/12/17 00:34:50;;;;;;;55.97;27.57;;;8.10;93.30;;;;;;5009775;28;20503;-68
2020/12/17 00:37:16;;;;;;;59.60;29.17;;;8.10;93.30;;;;;;5009828;28;20468;-68
2020/12/17 00:39:42;;;;;;;54.80;27.87;;;8.00;93.50;;;;;;5007576;28;20036;-69
2020/12/17 00:42:08;;;;;;;60.77;28.27;;;8.00;93.40;;;;;;5009477;28;20506;-67
2020/12/17 00:44:34;;;;;;;57.30;27.17;;;8.00;93.40;;;;;;5049061;28;20096;-68
2020/12/17 00:46:59;;;;;;;56.87;27.70;;;7.90;93.40;;;;;;5015400;28;20038;-68
2020/12/17 00:49:25;;;;;;;57.03;28.50;;;7.90;93.40;;;;;;5017741;28;20053;-68
2020/12/17 00:51:58;;;;;;;63.37;28.90;;;7.90;93.40;;;;;;5007361;28;20042;-68
2020/12/17 00:54:24;;;;;;;52.40;25.63;;;7.90;93.60;;;;;;5015306;28;20399;-68
2020/12/17 00:56:49;;;;;;;53.27;25.97;;;7.90;93.70;;;;;;5020655;28;20049;-70
2020/12/17 00:59:15;;;;;;;59.73;28.93;;;7.90;93.90;;;;;;5026711;28;20099;-68
2020/12/17 01:01:41;;;;;;;55.23;27.70;;;7.90;93.70;;;;;;5019006;28;20511;-68
2020/12/17 01:04:06;;;;;;;56.10;26.53;;;7.90;93.60;;;;;;5024964;28;20044;-68
2020/12/17 01:06:32;;;;;;;54.53;27.33;;;8.00;93.60;;;;;;5025190;28;20038;-68
2020/12/17 01:08:58;;;;;;;54.67;28.03;;;7.90;93.60;;;;;;5025157;28;20057;-68
2020/12/17 01:11:28;;;;;;;50.43;22.23;;;7.90;93.50;;;;;;5010807;28;20449;-67
2020/12/17 01:13:54;;;;;;;54.33;25.70;;;7.90;93.40;;;;;;5009830;28;20065;-67
2020/12/17 01:16:21;;;;;;;56.10;25.37;;;7.80;93.40;;;;;;5010563;28;20034;-69
2020/12/17 01:18:47;;;;;;;54.63;27.20;;;7.80;93.40;;;;;;5009564;28;20034;-68
2020/12/17 01:21:13;;;;;;;56.13;27.50;;;7.70;93.50;;;;;;5009016;28;20038;-68
2020/12/17 01:23:39;;;;;;;58.67;26.93;;;7.70;93.50;;;;;;5002799;28;20045;-68
2020/12/17 01:26:09;;;;;;;57.83;27.77;;;7.70;93.50;;;;;;5030493;28;20052;-68
2020/12/17 01:28:36;;;;;;;62.47;29.17;;;7.70;93.50;;;;;;5028919;28;20045;-67
2020/12/17 01:31:11;;;;;;;57.27;25.80;;;7.60;93.50;;;;;;5030459;28;20044;-67
2020/12/17 01:33:38;;;;;;;56.67;26.80;;;7.60;93.60;;;;;;5027947;28;20478;-68
2020/12/17 01:36:09;;;;;;;58.23;28.50;;;7.60;93.60;;;;;;5030471;28;20046;-68
2020/12/17 01:38:36;;;;;;;58.80;27.55;;;7.60;93.70;;;;;;5032484;28;20414;-68
2020/12/17 01:41:02;;;;;;;58.73;27.20;;;7.60;93.80;;;;;;5034078;28;20052;-68
2020/12/17 01:43:35;;;;;;;57.53;26.67;;;7.60;93.90;;;;;;5015921;28;20038;-68
2020/12/17 01:46:01;;;;;;;60.87;27.37;;;7.70;93.90;;;;;;5023154;28;20041;-67
2020/12/17 01:48:28;;;;;;;54.23;25.80;;;7.70;93.80;;;;;;5025640;28;20572;-68
2020/12/17 01:50:54;;;;;;;57.63;27.80;;;7.70;93.80;;;;;;5024724;28;20034;-67
2020/12/17 01:53:20;;;;;;;52.83;26.50;;;7.70;93.80;;;;;;5029750;28;20040;-67
2020/12/17 01:55:45;;;;;;;49.37;24.93;;;7.70;93.80;;;;;;5033240;28;20121;-67
2020/12/17 01:58:22;;;;;;;51.07;24.90;;;7.70;93.80;;;;;;5033906;28;20131;-67
2020/12/17 02:00:52;;;;;;;53.30;25.87;;;7.70;93.80;;;;;;5029851;28;20034;-68
2020/12/17 02:03:18;;;;;;;51.70;26.15;;;7.70;93.80;;;;;;5021451;28;20376;-67
2020/12/17 02:05:44;;;;;;;50.50;23.83;;;7.70;93.70;;;;;;5033343;28;20036;-67
2020/12/17 02:08:13;;;;;;;50.63;25.33;;;7.70;93.70;;;;;;5033432;28;20394;-67
2020/12/17 02:10:40;;;;;;;51.53;25.87;;;7.70;93.70;;;;;;5033559;28;20033;-68
2020/12/17 02:13:06;;;;;;;52.43;26.60;;;7.70;93.80;;;;;;5032296;28;20041;-68
2020/12/17 02:15:31;;;;;;;50.90;24.50;;;7.70;93.80;;;;;;5033556;28;20565;-68
2020/12/17 02:17:57;;;;;;;50.40;25.40;;;7.70;93.80;;;;;;5032104;28;20037;-68
2020/12/17 02:20:23;;;;;;;50.70;25.30;;;7.70;93.80;;;;;;5031766;28;20018;-68
2020/12/17 02:22:49;;;;;;;46.97;23.33;;;7.70;93.70;;;;;;5031362;28;20175;-68
2020/12/17 02:25:15;;;;;;;44.93;24.40;;;7.70;93.80;;;;;;5032718;28;20112;-68
2020/12/17 02:27:42;;;;;;;48.57;24.13;;;7.70;93.80;;;;;;5024927;28;20038;-68
2020/12/17 02:30:09;;;;;;;46.57;21.97;;;7.70;93.70;;;;;;5033245;28;20054;-67
2020/12/17 02:32:36;;;;;;;47.00;24.33;;;7.70;93.70;;;;;;5032102;28;20071;-68
2020/12/17 02:35:04;;;;;;;44.73;23.27;;;7.70;93.70;;;;;;5022400;28;20510;-68
2020/12/17 02:37:29;;;;;;;41.83;21.20;;;7.70;93.70;;;;;;5010504;28;20038;-68
2020/12/17 02:39:55;;;;;;;47.60;23.93;;;7.70;93.70;;;;;;5019998;28;20064;-68
2020/12/17 02:42:21;;;;;;;46.80;23.30;;;7.70;93.60;;;;;;5022550;28;20506;-68
2020/12/17 02:44:47;;;;;;;44.17;23.20;;;7.70;93.60;;;;;;5024934;28;20034;-68
2020/12/17 02:47:12;;;;;;;46.33;23.67;;;7.70;93.70;;;;;;5015077;28;20041;-67
2020/12/17 02:49:38;;;;;;;45.37;23.30;;;7.70;93.70;;;;;;5031697;28;20052;-67
2020/12/17 02:52:04;;;;;;;43.40;22.80;;;7.70;93.70;;;;;;5032066;28;20129;-67
2020/12/17 02:54:30;;;;;;;43.23;22.83;;;7.60;93.70;;;;;;5032371;28;20128;-68
2020/12/17 02:56:56;;;;;;;46.00;23.40;;;7.70;93.60;;;;;;5032641;28;21157;-67
2020/12/17 02:59:21;;;;;;;44.10;23.57;;;7.70;93.60;;;;;;5032738;28;20064;-68
2020/12/17 03:01:47;;;;;;;41.87;22.43;;;7.70;93.70;;;;;;5030106;28;20064;-67
2020/12/17 03:04:13;;;;;;;42.43;23.23;;;7.60;93.60;;;;;;5032550;28;20029;-68
2020/12/17 03:06:39;;;;;;;40.50;21.73;;;7.60;93.60;;;;;;5014711;28;20148;-67
2020/12/17 03:09:06;;;;;;;40.83;22.17;;;7.70;93.70;;;;;;5029025;28;20038;-68
2020/12/17 03:11:31;;;;;;;42.53;22.37;;;7.60;93.60;;;;;;5024245;28;20039;-68
2020/12/17 03:13:58;;;;;;;45.47;23.23;;;7.60;93.60;;;;;;5031632;28;20037;-68
2020/12/17 03:16:24;;;;;;;43.77;23.03;;;7.70;93.60;;;;;;5032253;28;20061;-68
2020/12/17 03:18:50;;;;;;;45.03;22.63;;;7.70;93.60;;;;;;5031121;28;20112;-68
2020/12/17 03:21:15;;;;;;;43.43;22.30;;;7.70;93.70;;;;;;5030410;28;20120;-68
2020/12/17 03:23:41;;;;;;;44.40;22.50;;;7.70;93.50;;;;;;5031499;28;20061;-67
2020/12/17 03:26:08;;;;;;;43.97;22.33;;;7.60;93.50;;;;;;5031601;28;20037;-68
2020/12/17 03:28:34;;;;;;;44.50;23.10;;;7.60;93.50;;;;;;5032260;28;20394;-69
2020/12/17 03:31:00;;;;;;;41.73;21.60;;;7.60;93.50;;;;;;5032027;28;20030;-68
2020/12/17 03:33:26;;;;;;;42.57;22.83;;;7.60;93.50;;;;;;5029598;28;20241;-68
2020/12/17 03:35:52;;;;;;;41.50;21.73;;;7.60;93.50;;;;;;5031942;28;20137;-68
2020/12/17 03:38:17;;;;;;;40.90;20.87;;;7.60;93.60;;;;;;5031411;28;20044;-68
2020/12/17 03:40:44;;;;;;;40.80;21.87;;;7.60;93.60;;;;;;5031844;28;20030;-68
2020/12/17 03:43:10;;;;;;;42.30;21.43;;;7.70;93.60;;;;;;5031075;28;20049;-68
2020/12/17 03:45:35;;;;;;;40.53;21.90;;;7.60;93.50;;;;;;5031337;28;20041;-68
2020/12/17 03:48:01;;;;;;;42.93;21.47;;;7.60;93.50;;;;;;5030498;28;20145;-68
2020/12/17 03:50:27;;;;;;;42.67;22.00;;;7.70;93.60;;;;;;5031141;28;20391;-68
2020/12/17 03:52:53;;;;;;;40.27;21.07;;;7.60;93.50;;;;;;5030952;28;20042;-67
2020/12/17 03:55:18;;;;;;;42.27;21.87;;;7.70;93.50;;;;;;5013985;28;20551;-68
2020/12/17 03:57:44;;;;;;;42.17;21.73;;;7.70;93.50;;;;;;5029881;28;20048;-68
2020/12/17 04:00:10;;;;;;;40.17;20.60;;;7.70;93.50;;;;;;5031566;28;20030;-68
2020/12/17 04:02:35;;;;;;;38.30;20.23;;;7.60;93.40;;;;;;5028964;28;20068;-69
2020/12/17 04:05:01;;;;;;;40.57;21.67;;;7.70;93.40;;;;;;5030138;28;20030;-68
2020/12/17 04:07:27;;;;;;;40.80;21.93;;;7.70;93.40;;;;;;5030160;28;20038;-68
2020/12/17 04:09:53;;;;;;;41.23;22.20;;;7.60;93.30;;;;;;5062984;28;20067;-68
2020/12/17 04:12:19;;;;;;;40.13;20.37;;;7.60;93.30;;;;;;5030624;28;20033;-68
2020/12/17 04:14:44;;;;;;;42.47;20.43;;;7.60;93.40;;;;;;5030737;28;20395;-68
2020/12/17 04:17:10;;;;;;;41.90;21.77;;;7.60;93.40;;;;;;5031239;28;20041;-68
2020/12/17 04:19:36;;;;;;;41.37;22.47;;;7.60;93.40;;;;;;5031280;28;20040;-68
2020/12/17 04:22:02;;;;;;;40.00;21.70;;;7.50;93.40;;;;;;5030099;28;20045;-68
2020/12/17 04:24:29;;;;;;;42.83;21.37;;;7.50;93.40;;;;;;5031191;28;20036;-67
2020/12/17 04:26:55;;;;;;;44.90;22.30;;;7.50;93.40;;;;;;5030600;28;20038;-68
2020/12/17 04:29:21;;;;;;;41.40;21.57;;;7.50;93.40;;;;;;5031238;28;20494;-68
2020/12/17 04:31:47;;;;;;;39.33;20.77;;;7.50;93.40;;;;;;5030457;28;20072;-68
2020/12/17 04:34:12;;;;;;;41.17;21.10;;;7.50;93.40;;;;;;5029242;28;20030;-68
2020/12/17 04:36:38;;;;;;;41.37;20.97;;;7.50;93.30;;;;;;5031012;28;20449;-68
2020/12/17 04:39:05;;;;;;;42.63;22.17;;;7.50;93.30;;;;;;5029326;28;20033;-70
2020/12/17 04:41:32;;;;;;;39.80;20.37;;;7.50;93.30;;;;;;5030865;28;20053;-68
2020/12/17 04:43:59;;;;;;;39.57;21.03;;;7.40;93.30;;;;;;5029505;28;20509;-68
2020/12/17 04:46:30;;;;;;;40.27;20.90;;;7.40;93.30;;;;;;5030380;28;20816;-67
2020/12/17 04:49:01;;;;;;;39.73;20.47;;;7.40;93.40;;;;;;5030775;28;20044;-68
2020/12/17 04:51:30;;;;;;;40.25;21.70;;;7.40;93.40;;;;;;5030502;28;20045;-68
2020/12/17 04:54:01;;;;;;;42.67;21.70;;;7.40;93.60;;;;;;5012584;28;20109;-68
2020/12/17 04:56:29;;;;;;;40.27;21.93;;;7.40;93.40;;;;;;5030446;28;20079;-68
2020/12/17 04:58:59;;;;;;;38.37;21.93;;;7.40;93.40;;;;;;5030693;28;20076;-68
2020/12/17 05:01:32;;;;;;;40.72;20.77;;;7.40;93.40;;;;;;5013895;28;20039;-68
2020/12/17 05:03:58;;;;;;;40.23;20.90;;;7.40;93.30;;;;;;5017867;28;20096;-68
2020/12/17 05:06:25;;;;;;;39.87;20.50;;;7.40;93.30;;;;;;5010647;28;20398;-68
2020/12/17 05:08:52;;;;;;;46.90;21.23;;;7.40;93.20;;;;;;5010939;28;20034;-68
2020/12/17 05:11:19;;;;;;;37.23;19.93;;;7.40;93.20;;;;;;5010952;28;20487;-68
2020/12/17 05:13:45;;;;;;;43.37;22.20;;;7.30;93.30;;;;;;5011750;28;20045;-68
2020/12/17 05:16:11;;;;;;;44.13;21.53;;;7.30;93.30;;;;;;4993952;28;20038;-68
2020/12/17 05:18:37;;;;;;;42.87;21.73;;;7.30;93.60;;;;;;5021710;28;20380;-68
2020/12/17 05:21:03;;;;;;;39.93;20.80;;;7.30;93.40;;;;;;5013016;28;20475;-68
2020/12/17 05:23:29;;;;;;;39.50;20.83;;;7.30;93.40;;;;;;5014067;28;20025;-68
2020/12/17 05:25:56;;;;;;;42.70;21.63;;;7.30;93.40;;;;;;5014179;28;20057;-68
2020/12/17 05:28:26;;;;;;;41.70;21.67;;;7.30;93.40;;;;;;5013188;28;20084;-69
2020/12/17 05:30:51;;;;;;;38.40;20.42;;;7.30;93.40;;;;;;5013040;28;20438;-68
2020/12/17 05:33:17;;;;;;;40.43;21.70;;;7.30;93.40;;;;;;5012391;28;20064;-68
2020/12/17 05:35:43;;;;;;;39.60;21.77;;;7.30;93.50;;;;;;4996765;28;20113;-68
2020/12/17 05:38:10;;;;;;;38.10;20.70;;;7.30;93.50;;;;;;5014102;28;20041;-68
2020/12/17 05:40:43;;;;;;;40.20;21.00;;;7.30;93.40;;;;;;5013224;28;20041;-69
2020/12/17 05:43:10;;;;;;;41.17;21.87;;;7.30;93.40;;;;;;5011814;28;20426;-68
2020/12/17 05:45:38;;;;;;;40.03;20.10;;;7.30;93.40;;;;;;5014332;28;20034;-68
2020/12/17 05:48:11;;;;;;;42.17;21.83;;;7.30;93.50;;;;;;5013773;28;20623;-68
2020/12/17 05:50:58;;;;;;;38.93;20.47;;;7.30;93.50;;;;;;5014275;28;20033;-68
2020/12/17 05:53:29;;;;;;;42.03;21.63;;;7.30;93.50;;;;;;5012999;28;20042;-68
2020/12/17 05:56:06;;;;;;;37.57;19.53;;;7.30;93.40;;;;;;5014039;28;20403;-68
2020/12/17 05:58:42;;;;;;;36.43;20.37;;;7.40;93.50;;;;;;5045475;28;20057;-68
2020/12/17 06:01:09;;;;;;;40.00;20.87;;;7.30;93.50;;;;;;5014007;28;20067;-68
2020/12/17 06:03:34;;;;;;;38.67;20.80;;;7.40;93.50;;;;;;5011529;28;20030;-68
2020/12/17 06:06:04;;;;;;;38.43;20.60;;;7.30;93.50;;;;;;5012562;28;20038;-68
2020/12/17 06:08:42;;;;;;;39.70;20.13;;;7.40;93.50;;;;;;5013513;28;20034;-68
2020/12/17 06:11:15;;;;;;;38.57;20.40;;;7.30;93.50;;;;;;5012538;28;20092;-68
2020/12/17 06:13:43;;;;;;;38.20;20.10;;;7.40;93.50;;;;;;5012375;28;20065;-68
2020/12/17 06:16:10;;;;;;;37.83;19.17;;;7.40;93.50;;;;;;5013621;28;20034;-68
2020/12/17 06:19:12;;;;;;;37.67;20.07;;;7.40;93.50;;;;;;5011928;28;20052;-68
2020/12/17 06:21:40;;;;;;;37.60;19.87;;;7.40;93.50;;;;;;4971004;28;20051;-68
2020/12/17 06:24:07;;;;;;;37.30;18.33;;;7.40;93.40;;;;;;4983237;28;20045;-68
2020/12/17 06:26:42;;;;;;;37.63;20.57;;;7.40;93.40;;;;;;5011257;28;20030;-68
2020/12/17 06:29:17;;;;;;;34.40;19.40;;;7.40;93.50;;;;;;5010366;28;20117;-68
2020/12/17 06:31:57;;;;;;;37.67;19.87;;;7.50;93.50;;;;;;5007904;28;20045;-68
2020/12/17 06:34:37;;;;;;;37.47;19.00;;;7.40;93.50;;;;;;5014890;28;20046;-68
2020/12/17 06:37:03;;;;;;;34.17;16.50;;;7.40;93.50;;;;;;5011051;28;20042;-68
2020/12/17 06:39:30;;;;;;;36.63;18.87;;;7.40;93.40;;;;;;5013033;28;20103;-68
2020/12/17 06:41:55;;;;;;;34.43;18.87;;;7.40;93.40;;;;;;5011860;28;20041;-68
2020/12/17 06:44:32;;;;;;;36.20;18.73;;;7.40;93.40;;;;;;5011691;28;20697;-69
2020/12/17 06:47:03;;;;;;;34.53;18.27;;;7.40;93.40;;;;;;5019596;28;20056;-68
2020/12/17 06:49:31;;;;;;;35.37;18.23;;;7.50;93.50;;;;;;5030216;28;20037;-68
2020/12/17 06:52:10;;;;;;;33.70;18.67;;;7.40;93.40;;;;;;5025716;28;20037;-68
2020/12/17 06:54:40;;;;;;;31.27;17.33;;;7.50;93.40;;;;;;5031028;28;20083;-68
2020/12/17 06:57:09;;;;;;;32.58;18.48;;;7.50;93.40;;;;;;5030288;28;20566;-68
2020/12/17 06:59:43;;;;;;;34.07;17.60;;;7.50;93.40;;;;;;5032036;28;20041;-68
2020/12/17 07:02:09;;;;;;;34.87;17.37;;;7.50;93.40;;;;;;5022297;28;20038;-68
2020/12/17 07:04:47;;;;;;;34.70;18.83;;;7.50;93.40;;;;;;5029892;28;20560;-68
2020/12/17 07:07:23;;;;;;;34.30;17.47;;;7.60;93.40;;;;;;5032440;28;20052;-68
2020/12/17 07:09:54;;;;;;;35.23;17.97;;;7.60;93.40;;;;;;5025245;28;20045;-69
2020/12/17 07:12:35;;;;;;;34.27;19.03;;;7.60;93.40;;;;;;5012005;28;20037;-68
2020/12/17 07:15:05;;;;;;;;;;;7.60;93.40;;;;;;5008826;28;20043;-68
2020/12/17 07:17:31;;;;;;;35.93;21.10;;;7.60;93.40;;;;;;5009699;28;19914;-68
2020/12/17 07:19:56;;;;;;;29.43;16.37;;;7.60;93.30;;;;;;5023262;28;20125;-68
2020/12/17 07:22:22;;;;;;;31.63;17.10;;;7.60;93.30;;;;;;5022711;28;20042;-68
2020/12/17 07:24:53;;;;;;;33.57;18.17;;;7.60;93.30;;;;;;5031809;28;20037;-68
2020/12/17 07:27:22;;;;;;;;;;;7.60;93.30;;;;;;5032367;28;20552;-68
2020/12/17 07:29:49;;;;;;;35.03;19.63;;;7.60;93.30;;;;;;5028152;28;19913;-69
2020/12/17 07:32:34;;;;;;;33.93;17.13;;;7.60;93.30;;;;;;5012937;28;20037;-68
2020/12/17 07:35:06;;;;;;;32.03;17.07;;;7.60;93.30;;;;;;5013441;28;20041;-69
2020/12/17 07:37:41;;;;;;;35.07;20.13;;;7.60;93.30;;;;;;5028100;28;20494;-68
2020/12/17 07:40:22;;;;;;;31.13;17.10;;;7.70;93.30;;;;;;5022419;28;20128;-70
2020/12/17 07:43:00;;;;;;;30.27;17.23;;;7.70;93.30;;;;;;5015629;28;20048;-69
2020/12/17 07:45:42;;;;;;;30.50;16.87;;;7.70;93.30;;;;;;5017499;28;20165;-71
2020/12/17 07:48:44;;;;;;;34.60;18.00;;;7.80;93.30;;;;;;5019416;28;20136;-71
2020/12/17 07:51:13;;;;;;;27.07;14.90;;;7.80;93.50;;;;;;4996730;28;20049;-70
2020/12/17 07:53:42;;;;;;;27.13;15.33;;;7.80;93.30;;;;;;5021573;28;20085;-69
2020/12/17 07:56:08;;;;;;;34.03;17.33;;;7.80;93.30;;;;;;5029058;28;20053;-69
2020/12/17 07:58:35;;;;;;;26.20;15.37;;;7.90;93.20;;;;;;5010452;28;20509;-70
2020/12/17 08:01:02;;;;;;;27.07;15.30;;;7.90;93.20;;;;;;5011032;28;20525;-69
2020/12/17 08:03:31;;;;;;;26.00;15.20;;;7.90;93.20;;;;;;5009819;28;20092;-69
2020/12/17 08:06:05;;;;;;;28.43;15.53;;;8.00;93.10;;;;;;5023021;28;20406;-70
2020/12/17 08:08:32;;;;;;;31.50;17.93;;;7.90;93.10;;;;;;5019264;28;20053;-70
2020/12/17 08:10:58;;;;;;;30.77;17.47;;;7.90;93.10;;;;;;5024825;28;20041;-70
2020/12/17 08:13:27;;;;;;;38.83;22.10;;;8.00;93.10;;;;;;5030391;28;20033;-69
2020/12/17 08:16:00;;;;;;;34.57;20.07;;;8.00;93.00;;;;;;5030911;28;20026;-70
2020/12/17 08:18:27;;;;;;;35.57;20.47;;;7.90;93.00;;;;;;5031251;28;20441;-70
2020/12/17 08:21:04;;;;;;;29.00;16.13;;;8.00;93.00;;;;;;5030508;28;20037;-69
2020/12/17 08:23:32;;;;;;;34.20;19.77;;;8.00;93.00;;;;;;5030299;28;20083;-69
2020/12/17 08:26:01;;;;;;;27.70;15.37;;;8.00;93.00;;;;;;5030698;28;20049;-69
2020/12/17 08:28:41;;;;;;;28.90;16.80;;;8.00;93.00;;;;;;5031038;28;20495;-69
2020/12/17 08:31:18;;;;;;;31.93;17.53;;;8.00;93.00;;;;;;5030800;28;20410;-69
2020/12/17 08:33:46;;;;;;;28.43;16.00;;;8.00;93.00;;;;;;5030375;28;20037;-69
2020/12/17 08:36:21;;;;;;;30.53;17.20;;;8.00;93.00;;;;;;5014859;28;20057;-70
2020/12/17 08:39:14;;;;;;;26.80;15.30;;;8.00;93.00;;;;;;5004924;28;20439;-69
2020/12/17 08:41:58;;;;;;;27.83;15.27;;;8.00;93.00;;;;;;5003399;28;20049;-69
2020/12/17 08:44:28;;;;;;;27.63;15.67;;;8.00;93.00;;;;;;5011377;28;20033;-70
2020/12/17 08:47:05;;;;;;;29.33;16.87;;;8.00;92.90;;;;;;5020417;28;20029;-69
2020/12/17 08:49:31;;;;;;;41.17;22.63;;;8.10;93.00;;;;;;5030500;28;20080;-71
2020/12/17 08:51:57;;;;;;;36.07;21.07;;;8.00;93.00;;;;;;5027206;28;20120;-69
2020/12/17 08:54:38;;;;;;;24.90;14.57;;;8.00;93.00;;;;;;5013400;28;20125;-69
2020/12/17 08:57:09;;;;;;;29.58;16.58;;;8.00;93.00;;;;;;5012727;28;20549;-70
2020/12/17 08:59:36;;;;;;;29.30;15.43;;;8.10;93.00;;;;;;5007868;28;20054;-69
2020/12/17 09:02:02;;;;;;;26.93;15.70;;;8.00;93.00;;;;;;5009048;28;20058;-70
2020/12/17 09:04:29;;;;;;;29.30;15.57;;;8.10;93.00;;;;;;5010580;28;20038;-69
2020/12/17 09:06:57;;;;;;;27.50;15.87;;;8.10;93.00;;;;;;5006228;28;20410;-70
2020/12/17 09:09:25;;;;;;;24.93;14.50;;;8.10;93.00;;;;;;5009092;28;20037;-70
2020/12/17 09:11:59;;;;;;;34.27;18.70;;;8.10;93.00;;;;;;5016712;28;20117;-70
2020/12/17 09:14:33;;;;;;;30.37;14.93;;;8.10;93.00;;;;;;5029889;28;20033;-70
2020/12/17 09:17:13;;;;;;;24.77;15.10;;;8.20;93.00;;;;;;5026797;28;20124;-70
2020/12/17 09:19:39;;;;;;;33.33;19.10;;;8.20;93.00;;;;;;4990138;28;20051;-70
2020/12/17 09:22:05;;;;;;;27.53;16.17;;;8.20;93.00;;;;;;4989269;28;20487;-70
2020/12/17 09:24:36;;;;;;;24.20;14.53;;;8.30;93.10;;;;;;5012975;28;20053;-70
2020/12/17 09:27:21;;;;;;;28.70;15.47;;;8.30;93.00;;;;;;5029430;28;20099;-70
2020/12/17 09:30:15;;;;;;;29.03;16.27;;;8.30;93.00;;;;;;5029765;28;20045;-70
2020/12/17 09:32:53;;;;;;;29.13;15.83;;;8.30;93.00;;;;;;5027590;28;20038;-70
2020/12/17 09:35:20;;;;;;;30.80;18.10;;;8.40;93.00;;;;;;5011827;28;20030;-70
2020/12/17 09:38:19;;;;;;;27.20;15.87;;;8.40;93.00;;;;;;5010256;28;20041;-71
2020/12/17 09:40:46;;;;;;;28.30;16.60;;;8.40;93.00;;;;;;5005142;28;20451;-70
2020/12/17 09:43:16;;;;;;;28.67;16.73;;;8.40;93.00;;;;;;5021913;28;20505;-70
2020/12/17 09:45:47;;;;;;;30.75;18.10;;;8.40;93.00;;;;;;5007634;28;20046;-69
2020/12/17 09:48:28;;;;;;;34.07;19.47;;;8.40;93.10;;;;;;5023971;28;20030;-69
2020/12/17 09:51:03;;;;;;;29.57;17.20;;;8.50;93.10;;;;;;5001006;28;20049;-70
2020/12/17 09:53:32;;;;;;;29.50;15.57;;;8.50;93.10;;;;;;5007910;28;20034;-70
2020/12/17 09:55:58;;;;;;;29.60;16.70;;;8.50;93.10;;;;;;5009644;28;20457;-70
2020/12/17 09:58:24;;;;;;;31.83;16.93;;;8.50;93.10;;;;;;5011446;28;20050;-69
2020/12/17 10:00:50;;;;;;;29.90;16.47;;;8.50;93.10;;;;;;5012060;28;20041;-70
2020/12/17 10:03:17;;;;;;;28.63;16.27;;;8.50;93.10;;;;;;4995221;28;20125;-69
2020/12/17 10:05:43;;;;;;;26.67;15.67;;;8.60;93.20;;;;;;5013599;28;20056;-68
2020/12/17 10:08:09;;;;;;;38.80;21.57;;;8.60;93.10;;;;;;5013170;28;20041;-69
2020/12/17 10:10:36;;;;;;;45.33;24.53;;;8.60;93.10;;;;;;5013508;28;20440;-69
2020/12/17 10:13:03;;;;;;;30.37;18.00;;;8.60;93.20;;;;;;5012258;28;20125;-70
2020/12/17 10:15:30;;;;;;;29.50;16.40;;;8.60;93.20;;;;;;5012177;28;20033;-69
2020/12/17 10:17:56;;;;;;;35.13;18.17;;;8.60;93.20;;;;;;5013281;28;20056;-69
2020/12/17 10:20:23;;;;;;;31.08;16.13;;;8.70;93.20;;;;;;5011684;28;20041;-69
2020/12/17 10:22:49;;;;;;;41.00;20.97;;;8.60;93.30;;;;;;5012455;28;20042;-69
2020/12/17 10:25:17;;;;;;;29.98;16.25;;;8.70;93.30;;;;;;5010622;28;20049;-70
2020/12/17 10:27:43;;;;;;;41.33;20.20;;;8.70;93.30;;;;;;5014678;28;20033;-68
2020/12/17 10:30:10;;;;;;;33.27;18.07;;;8.70;93.30;;;;;;5013185;28;20498;-68
2020/12/17 10:32:43;;;;;;;26.40;16.23;;;8.80;93.40;;;;;;5011908;28;20038;-69
2020/12/17 10:35:10;;;;;;;28.33;15.75;;;8.80;93.40;;;;;;4995499;28;20038;-68
2020/12/17 10:37:39;;;;;;;26.05;15.57;;;8.80;93.40;;;;;;5012739;28;20038;-68
2020/12/17 10:40:06;;;;;;;28.85;18.05;;;8.90;93.40;;;;;;5013242;28;20061;-68
2020/12/17 10:42:32;;;;;;;26.73;15.77;;;8.90;93.40;;;;;;5010596;28;20042;-69
2020/12/17 10:44:58;;;;;;;32.90;18.88;;;8.90;93.40;;;;;;5011608;28;20038;-68
2020/12/17 10:47:23;;;;;;;29.65;15.98;;;9.00;93.50;;;;;;4993421;28;20112;-68
2020/12/17 10:49:50;;;;;;;26.58;15.63;;;9.00;93.40;;;;;;5012166;28;20125;-69
2020/12/17 10:52:16;;;;;;;29.27;16.27;;;9.00;93.40;;;;;;5012171;28;20424;-68
2020/12/17 10:54:41;;;;;;;24.77;14.75;;;9.10;93.50;;;;;;5012639;28;20152;-68
2020/12/17 10:57:07;;;;;;;28.17;15.60;;;9.10;93.40;;;;;;5012245;28;20034;-68
2020/12/17 10:59:33;;;;;;;27.92;15.48;;;9.10;93.50;;;;;;5012529;28;20394;-68
2020/12/17 11:02:00;;;;;;;28.25;15.50;;;9.10;93.50;;;;;;5011438;28;20048;-69
2020/12/17 11:04:26;;;;;;;27.23;15.52;;;9.10;93.50;;;;;;5010818;28;20046;-69
2020/12/17 11:06:56;;;;;;;28.58;15.77;;;9.20;93.50;;;;;;5011927;28;20092;-69
2020/12/17 11:09:23;;;;;;;26.58;15.93;;;9.20;93.50;;;;;;5012019;28;20488;-69
2020/12/17 11:11:52;;;;;;;27.17;16.15;;;9.20;93.50;;;;;;5012237;28;20049;-69
2020/12/17 11:14:19;;;;;;;25.25;15.30;;;9.20;93.50;;;;;;5011534;28;20058;-69
2020/12/17 11:16:48;;;;;;;27.13;16.00;;;9.20;93.60;;;;;;5012141;28;20120;-68
2020/12/17 11:19:14;;;;;;;25.95;14.70;;;9.30;93.60;;;;;;5011779;28;20034;-67
2020/12/17 11:21:40;;;;;;;25.58;14.90;;;9.30;93.60;;;;;;5009976;28;20034;-69
2020/12/17 11:24:06;;;;;;;25.70;14.25;;;9.30;93.50;;;;;;5009165;28;20442;-69
2020/12/17 11:26:32;;;;;;;23.95;14.40;;;9.40;93.60;;;;;;5008392;28;20054;-68
2020/12/17 11:28:58;;;;;;;23.83;14.57;;;9.40;93.60;;;;;;5026558;28;20087;-69
2020/12/17 11:31:25;;;;;;;21.97;14.30;;;9.40;93.60;;;;;;5011636;28;20058;-69
2020/12/17 11:33:52;;;;;;;25.33;14.30;;;9.40;93.60;;;;;;5011724;28;20045;-69
2020/12/17 11:36:18;;;;;;;24.83;14.65;;;9.40;93.60;;;;;;5010874;28;20049;-69
2020/12/17 11:38:43;;;;;;;22.05;14.13;;;9.50;93.60;;;;;;5011952;28;20041;-69
2020/12/17 11:41:13;;;;;;;22.98;14.00;;;9.50;93.60;;;;;;5012009;28;20070;-68
2020/12/17 11:43:38;;;;;;;21.52;14.10;;;9.50;93.60;;;;;;5042826;28;20037;-69
2020/12/17 11:46:04;;;;;;;26.40;15.18;;;9.50;93.60;;;;;;5012016;28;20550;-69
2020/12/17 11:48:30;;;;;;;24.35;13.75;;;9.50;93.60;;;;;;5011604;28;20085;-69
2020/12/17 11:50:56;;;;;;;21.50;13.38;;;9.50;93.70;;;;;;5012005;28;20034;-69
2020/12/17 11:53:22;;;;;;;22.60;14.00;;;9.60;93.70;;;;;;5011320;28;20042;-69
2020/12/17 11:55:48;;;;;;;21.38;14.18;;;9.60;93.70;;;;;;5009963;28;20464;-68
2020/12/17 11:58:14;;;;;;;21.95;13.38;;;9.60;93.70;;;;;;5011901;28;20036;-69
2020/12/17 12:00:40;;;;;;;24.00;14.07;;;9.60;93.60;;;;;;5010862;28;20034;-70
2020/12/17 12:03:06;;;;;;;21.80;13.73;;;9.60;93.60;;;;;;5010875;28;20041;-69
2020/12/17 12:05:32;;;;;;;20.85;13.18;;;9.60;93.60;;;;;;5010410;28;20033;-69
2020/12/17 12:07:58;;;;;;;24.45;14.57;;;9.70;93.70;;;;;;5041671;28;20110;-69
2020/12/17 12:10:25;;;;;;;21.25;13.07;;;9.70;93.60;;;;;;5011233;28;20053;-69
2020/12/17 12:12:51;;;;;;;22.00;13.98;;;9.70;93.60;;;;;;5009967;28;20042;-69
2020/12/17 12:15:17;;;;;;;19.90;13.60;;;9.70;93.60;;;;;;5010979;28;20060;-69
2020/12/17 12:17:43;;;;;;;21.23;13.88;;;9.70;93.60;;;;;;5009559;28;20491;-69
2020/12/17 12:20:09;;;;;;;22.77;14.20;;;9.70;93.60;;;;;;5010772;28;20129;-69
2020/12/17 12:22:36;;;;;;;21.63;14.20;;;9.70;93.50;;;;;;5010039;28;20042;-69
2020/12/17 12:25:04;;;;;;;21.40;14.05;;;9.60;93.50;;;;;;5011000;28;20410;-69
2020/12/17 12:27:30;;;;;;;22.95;13.70;;;9.60;93.60;;;;;;5011293;28;20569;-69
2020/12/17 12:29:55;;;;;;;21.40;14.13;;;9.60;93.50;;;;;;5011360;28;20042;-69
2020/12/17 12:32:21;;;;;;;23.92;15.45;;;9.60;93.60;;;;;;5010402;28;20038;-69
2020/12/17 12:34:47;;;;;;;21.20;13.38;;;9.60;93.60;;;;;;5011172;28;20033;-68
2020/12/17 12:37:14;;;;;;;22.33;13.82;;;9.60;93.70;;;;;;5010870;28;20037;-70
2020/12/17 12:39:39;;;;;;;21.20;13.60;;;9.70;93.90;;;;;;5011057;28;20040;-69
2020/12/17 12:42:07;;;;;;;16.90;11.80;;;9.70;93.90;;;;;;5010574;28;20414;-69
2020/12/17 12:44:33;;;;;;;18.25;11.05;;;9.80;93.90;;;;;;5010740;28;20050;-69